»·PEaware :: BAW2166 KTPA-EGKK

BAW2166 :: KTPA-EGKK

FLIGHT INFORMATION

Flight Status: Arrived
Operator:
British Airways
More flights by this operator :: More flights under this callsign
Pilot: Cullen C. (7783)
Aircraft: Unknown
(B77L)
More flights by this aircraft type
Origin: KTPA Tampa Intl
United States
Destination: EGKK Gatwick
United Kingdom
More flights between these airports :: More routes between these airports
Route: NITTS350035 CARRD DUNKN J75 CAE J51 OTT J42 RBV J62 ACK TUSKY/M083F390 N377A ALLRY/N0472F390 GISTI NORLA UM140 MERLY L149 DIDEL N513 ELRIP N17 OTMET OTMET1G
File this flight plan on PilotEdge
Remarks: PBN / A1B1C1D1L1O1S2 DOF / 180117 REG / N712SB EET / KZJX0000 KZDC0050 KZNY0134 KZBW0140 CZQM0218 CZQX0258 EGGX0500 EISN0557 EGTT0630 OPR / BAW PER / D RALT / LPLA EIKN RMK / TCAS SIMBRIEF
Altitude:
(Current/Filed)
39,000ft
Speed:
(Current/Filed)
479kts
Departed: 17-Jan-18 03:17 PM
Arrived: 17-Jan-18 10:28 PM
Distance/Time
Traveled:
3837nm/7:11
Distance/Time
To Go:
Arrived

Flight Plot

Page will automatically refresh every two minutes.

Flight plan parsing failed; only flown route is shown


Map Options




Map Legend


Flown Route
Filed Route
Departure Airport
Arrival Airport
Navaid (VOR, NDB)
Fix

Horizontal Profiles

Position Reports

Time Latitude Longitude Heading Altitude Ground
Speed
17-Jan-18 14:50 27.975438 -82.536137 354 39ft 0kts
17-Jan-18 14:51 27.975438 -82.536137 354 39ft 0kts
17-Jan-18 14:52 27.975438 -82.536137 354 39ft 0kts
17-Jan-18 14:53 27.975438 -82.536137 354 39ft 0kts
17-Jan-18 14:54 27.975438 -82.536137 354 39ft 0kts
17-Jan-18 14:55 27.975438 -82.536137 354 39ft 0kts
17-Jan-18 14:56 27.975438 -82.536137 354 39ft 0kts
17-Jan-18 14:57 27.975438 -82.536137 354 39ft 0kts
17-Jan-18 14:58 27.975438 -82.536137 354 39ft 0kts
17-Jan-18 14:59 27.975438 -82.536137 354 39ft 0kts
17-Jan-18 15:00 27.975438 -82.536137 354 39ft 0kts
17-Jan-18 15:01 27.975438 -82.536137 354 39ft 0kts
17-Jan-18 15:02 27.975438 -82.536137 354 39ft 0kts
17-Jan-18 15:03 27.975438 -82.536137 354 39ft 0kts
17-Jan-18 15:04 27.975438 -82.536137 354 39ft 0kts
17-Jan-18 15:05 27.975438 -82.536137 354 39ft 0kts
17-Jan-18 15:06 27.975438 -82.536137 354 39ft 0kts
17-Jan-18 15:07 27.975438 -82.536137 354 39ft 0kts
17-Jan-18 15:08 27.975438 -82.536137 354 39ft 0kts
17-Jan-18 15:09 27.975438 -82.536137 354 39ft 0kts
17-Jan-18 15:10 27.975438 -82.536137 354 39ft 0kts
17-Jan-18 15:11 27.975438 -82.536137 354 39ft 0kts
17-Jan-18 15:12 27.975438 -82.536137 354 39ft 0kts
17-Jan-18 15:13 27.975438 -82.536137 354 39ft 0kts
17-Jan-18 15:14 27.975149 -82.536104 354 39ft 2kts
17-Jan-18 15:15 27.975023 -82.536090 354 39ft 0kts
17-Jan-18 15:16 27.975024 -82.536090 354 39ft 0kts
17-Jan-18 15:17 27.974947 -82.536962 258 39ft 11kts
17-Jan-18 15:18 27.975158 -82.539644 279 39ft 9kts
17-Jan-18 15:19 27.973311 -82.540726 180 39ft 11kts
17-Jan-18 15:20 27.968989 -82.540886 181 39ft 19kts
17-Jan-18 15:21 27.964100 -82.541044 182 39ft 12kts
17-Jan-18 15:22 27.964082 -82.542329 0 39ft 0kts
17-Jan-18 15:23 27.980610 -82.541634 0 444ft 178kts
17-Jan-18 15:24 28.039176 -82.548764 348 4029ft 256kts
17-Jan-18 15:25 28.110906 -82.560934 346 8615ft 268kts
17-Jan-18 15:26 28.191309 -82.574735 345 11609ft 329kts
17-Jan-18 15:27 28.294856 -82.578604 352 14252ft 400kts
17-Jan-18 15:28 28.410266 -82.581929 351 17682ft 429kts
17-Jan-18 15:29 28.532912 -82.585005 350 20882ft 453kts
17-Jan-18 15:30 28.662101 -82.588295 349 23763ft 475kts
17-Jan-18 15:31 28.794741 -82.604722 342 26363ft 489kts
17-Jan-18 15:32 28.932785 -82.625065 342 28780ft 512kts
17-Jan-18 15:33 29.076516 -82.645201 341 31277ft 520kts
17-Jan-18 15:34 29.220336 -82.665356 340 33636ft 522kts
17-Jan-18 15:35 29.364744 -82.685726 339 35643ft 521kts
17-Jan-18 15:36 29.511334 -82.694907 349 37371ft 539kts
17-Jan-18 15:37 29.659961 -82.691698 347 39035ft 531kts
17-Jan-18 15:38 29.807420 -82.690791 347 39411ft 526kts
17-Jan-18 15:39 29.953829 -82.690191 347 39404ft 527kts
17-Jan-18 15:40 30.100408 -82.688941 347 39394ft 526kts
17-Jan-18 15:41 30.246508 -82.688035 346 39391ft 523kts
17-Jan-18 15:42 30.392032 -82.687125 346 39395ft 523kts
17-Jan-18 15:43 30.539162 -82.676505 4 39391ft 555kts
17-Jan-18 15:44 30.683098 -82.601051 14 39401ft 564kts
17-Jan-18 15:45 30.827748 -82.530264 14 39397ft 566kts
17-Jan-18 15:46 30.972970 -82.458713 13 39396ft 565kts
17-Jan-18 15:47 31.117926 -82.388168 13 39391ft 564kts
17-Jan-18 15:48 31.262578 -82.317441 13 39389ft 564kts
17-Jan-18 15:49 31.407824 -82.246547 13 39384ft 565kts
17-Jan-18 15:50 31.552628 -82.175418 13 39378ft 565kts
17-Jan-18 15:51 31.698022 -82.103798 13 39374ft 565kts
17-Jan-18 15:52 31.843061 -82.032064 13 39374ft 566kts
17-Jan-18 15:53 31.988083 -81.960048 13 39368ft 566kts
17-Jan-18 15:54 32.134140 -81.890851 12 39368ft 565kts
17-Jan-18 15:55 32.279695 -81.821501 12 39368ft 565kts
17-Jan-18 15:56 32.425740 -81.751980 12 39371ft 565kts
17-Jan-18 15:57 32.571214 -81.682419 12 39370ft 564kts
17-Jan-18 15:58 32.716519 -81.612463 12 39369ft 564kts
17-Jan-18 15:59 32.862234 -81.542136 13 39362ft 564kts
17-Jan-18 16:00 33.007485 -81.471484 13 39351ft 565kts
17-Jan-18 16:01 33.152723 -81.400667 13 39342ft 564kts
17-Jan-18 16:02 33.298351 -81.329343 13 39339ft 564kts
17-Jan-18 16:03 33.443414 -81.258266 13 39336ft 564kts
17-Jan-18 16:04 33.588856 -81.186847 13 39329ft 564kts
17-Jan-18 16:05 33.733910 -81.115127 13 39326ft 565kts
17-Jan-18 16:06 33.877116 -81.035798 28 39309ft 582kts
17-Jan-18 16:07 33.997273 -80.901457 39 39304ft 590kts
17-Jan-18 16:08 34.117596 -80.768326 37 39316ft 587kts
17-Jan-18 16:09 34.238565 -80.635725 37 39323ft 589kts
17-Jan-18 16:10 34.360098 -80.501565 38 39328ft 591kts
17-Jan-18 16:11 34.481075 -80.367043 38 39314ft 592kts
17-Jan-18 16:12 34.602511 -80.231778 38 39304ft 591kts
17-Jan-18 16:13 34.723136 -80.096735 38 39307ft 589kts
17-Jan-18 16:14 34.843598 -79.962274 38 39308ft 589kts
17-Jan-18 16:15 34.964573 -79.826422 38 39295ft 590kts
17-Jan-18 16:16 35.084393 -79.690756 39 39292ft 587kts
17-Jan-18 16:17 35.209346 -79.564334 26 39292ft 576kts
17-Jan-18 16:18 35.347416 -79.466238 24 39299ft 574kts
17-Jan-18 16:19 35.484587 -79.366805 24 39301ft 573kts
17-Jan-18 16:20 35.621937 -79.266283 24 39303ft 573kts
17-Jan-18 16:21 35.758773 -79.165735 24 39306ft 574kts
17-Jan-18 16:22 35.895505 -79.064742 24 39319ft 574kts
17-Jan-18 16:23 36.032851 -78.963143 24 39322ft 572kts
17-Jan-18 16:24 36.168611 -78.862708 24 39331ft 569kts
17-Jan-18 16:25 36.304519 -78.761081 24 39336ft 570kts
17-Jan-18 16:26 36.437024 -78.661753 26 39333ft 548kts
17-Jan-18 16:27 36.567593 -78.563333 26 39339ft 550kts
17-Jan-18 16:28 36.698579 -78.464471 26 39342ft 549kts
17-Jan-18 16:29 36.829000 -78.366095 27 39345ft 548kts
17-Jan-18 16:30 36.958708 -78.267150 27 39355ft 546kts
17-Jan-18 16:31 37.088211 -78.168073 27 39354ft 543kts
17-Jan-18 16:32 37.216609 -78.069295 27 39350ft 541kts
17-Jan-18 16:33 37.345155 -77.970695 27 39358ft 541kts
17-Jan-18 16:34 37.473571 -77.871087 28 39377ft 543kts
17-Jan-18 16:35 37.578935 -77.785363 32 39383ft 542kts
17-Jan-18 16:36 37.721025 -77.654102 32 39387ft 541kts
17-Jan-18 16:37 37.843016 -77.542936 32 39390ft 541kts
17-Jan-18 16:38 37.944745 -77.449926 32 39390ft 542kts
17-Jan-18 16:39 38.067414 -77.338013 32 39391ft 540kts
17-Jan-18 16:40 38.208827 -77.207761 33 39387ft 539kts
17-Jan-18 16:41 38.309877 -77.114292 33 39405ft 540kts
17-Jan-18 16:42 38.431341 -77.001391 33 39415ft 540kts
17-Jan-18 16:43 38.572931 -76.869891 33 39395ft 540kts
17-Jan-18 16:44 38.674247 -76.774690 34 39381ft 541kts
17-Jan-18 16:45 38.765316 -76.622980 63 39376ft 545kts
17-Jan-18 16:46 38.834272 -76.449898 61 39373ft 546kts
17-Jan-18 16:47 38.908148 -76.278935 61 39379ft 547kts
17-Jan-18 16:48 38.999334 -76.125412 41 39381ft 543kts
17-Jan-18 16:49 39.107015 -75.989360 42 39367ft 542kts
17-Jan-18 16:50 39.214504 -75.850788 42 39362ft 548kts
17-Jan-18 16:51 39.321763 -75.712020 43 39359ft 545kts
17-Jan-18 16:52 39.429024 -75.573112 42 39351ft 544kts
17-Jan-18 16:53 39.535753 -75.434406 43 39348ft 544kts
17-Jan-18 16:54 39.642082 -75.294957 43 39342ft 545kts
17-Jan-18 16:55 39.745092 -75.149340 45 39339ft 547kts
17-Jan-18 16:56 39.847708 -75.003213 46 39328ft 548kts
17-Jan-18 16:57 39.950605 -74.856485 45 39319ft 550kts
17-Jan-18 16:58 40.053945 -74.709054 45 39288ft 545kts
17-Jan-18 16:59 40.155486 -74.562430 46 39270ft 546kts
17-Jan-18 17:00 40.234293 -74.394156 74 39269ft 546kts
17-Jan-18 17:01 40.278612 -74.203608 72 39262ft 550kts
17-Jan-18 17:02 40.328289 -74.014388 73 39264ft 550kts
17-Jan-18 17:03 40.378025 -73.823760 73 39259ft 553kts
17-Jan-18 17:04 40.426737 -73.632670 73 39250ft 553kts
17-Jan-18 17:05 40.475399 -73.441192 73 39241ft 554kts
17-Jan-18 17:06 40.523882 -73.248434 73 39219ft 555kts
17-Jan-18 17:07 40.572565 -73.055480 73 39212ft 558kts
17-Jan-18 17:08 40.621498 -72.861718 73 39211ft 560kts
17-Jan-18 17:09 40.669608 -72.665788 73 39211ft 562kts
17-Jan-18 17:10 40.717689 -72.469666 73 39204ft 564kts
17-Jan-18 17:11 40.765233 -72.271786 73 39192ft 566kts
17-Jan-18 17:12 40.813135 -72.073889 74 39181ft 567kts
17-Jan-18 17:13 40.860188 -71.875143 74 39181ft 570kts
17-Jan-18 17:14 40.907524 -71.674284 74 39178ft 570kts
17-Jan-18 17:15 40.954109 -71.474064 74 39170ft 570kts
17-Jan-18 17:16 41.000893 -71.273786 74 39167ft 570kts
17-Jan-18 17:17 41.047592 -71.072496 74 39164ft 570kts
17-Jan-18 17:18 41.093974 -70.871407 75 39153ft 572kts
17-Jan-18 17:19 41.139523 -70.668835 75 39152ft 572kts
17-Jan-18 17:20 41.184748 -70.466513 75 39148ft 572kts
17-Jan-18 17:21 41.230138 -70.264159 75 39143ft 573kts
17-Jan-18 17:22 41.275940 -70.060812 69 39136ft 574kts
17-Jan-18 17:23 41.373096 -69.899018 34 39142ft 563kts
17-Jan-18 17:24 41.491876 -69.761450 38 39136ft 568kts
17-Jan-18 17:25 41.606392 -69.616017 38 39128ft 567kts
17-Jan-18 17:26 41.720412 -69.470435 39 39122ft 567kts
17-Jan-18 17:27 41.834237 -69.324135 39 39115ft 567kts
17-Jan-18 17:28 41.948343 -69.176699 39 39104ft 568kts
17-Jan-18 17:29 42.061782 -69.029352 39 39127ft 566kts
17-Jan-18 17:30 42.174979 -68.881544 39 39054ft 566kts
17-Jan-18 17:31 42.287608 -68.733709 40 39008ft 566kts
17-Jan-18 17:32 42.400324 -68.584960 40 38979ft 567kts
17-Jan-18 17:33 42.513301 -68.435093 40 38954ft 567kts
17-Jan-18 17:34 42.625743 -68.285130 40 38903ft 567kts
17-Jan-18 17:35 42.737983 -68.134632 40 38881ft 568kts
17-Jan-18 17:36 42.850437 -67.983028 40 38867ft 568kts
17-Jan-18 17:37 42.962304 -67.831403 40 39042ft 568kts
17-Jan-18 17:38 43.074636 -67.678321 40 39073ft 569kts
17-Jan-18 17:39 43.186284 -67.525319 40 39064ft 569kts
17-Jan-18 17:40 43.297923 -67.371494 40 39058ft 570kts
17-Jan-18 17:41 43.409928 -67.216922 41 39049ft 570kts
17-Jan-18 17:42 43.521082 -67.061536 41 39042ft 570kts
17-Jan-18 17:43 43.628143 -66.898965 47 39033ft 574kts
17-Jan-18 17:44 43.727366 -66.726251 47 39026ft 575kts
17-Jan-18 17:45 43.828330 -66.554770 46 39018ft 575kts
17-Jan-18 17:46 43.929783 -66.382566 47 39016ft 576kts
17-Jan-18 17:47 44.030474 -66.209892 47 39015ft 577kts
17-Jan-18 17:48 44.131040 -66.036321 47 39020ft 577kts
17-Jan-18 17:49 44.231704 -65.861521 47 39031ft 577kts
17-Jan-18 17:50 44.331746 -65.686744 47 39059ft 576kts
17-Jan-18 17:51 44.431405 -65.511575 48 39083ft 576kts
17-Jan-18 17:52 44.531050 -65.335354 48 39102ft 575kts
17-Jan-18 17:53 44.630013 -65.159262 48 39115ft 575kts
17-Jan-18 17:54 44.728920 -64.982178 48 39135ft 575kts
17-Jan-18 17:55 44.827139 -64.805246 48 39135ft 574kts
17-Jan-18 17:56 44.925133 -64.627615 48 39124ft 574kts
17-Jan-18 17:57 45.023187 -64.448759 48 39120ft 575kts
17-Jan-18 17:58 45.120674 -64.269827 48 39109ft 575kts
17-Jan-18 17:59 45.217817 -64.090410 48 39098ft 575kts
17-Jan-18 18:00 45.315090 -63.909600 48 39095ft 575kts
17-Jan-18 18:01 45.411670 -63.728685 48 39096ft 575kts
17-Jan-18 18:02 45.508330 -63.546867 49 39099ft 573kts
17-Jan-18 18:03 45.604119 -63.365389 49 39109ft 576kts
17-Jan-18 18:04 45.700529 -63.181607 49 39133ft 579kts
17-Jan-18 18:05 45.796665 -62.997035 49 39141ft 577kts
17-Jan-18 18:06 45.891910 -62.813025 49 39146ft 575kts
17-Jan-18 18:07 45.987110 -62.627917 49 39144ft 575kts
17-Jan-18 18:08 46.081623 -62.442641 49 39148ft 573kts
17-Jan-18 18:09 46.175739 -62.257381 50 39161ft 574kts
17-Jan-18 18:10 46.269979 -62.070459 50 39167ft 574kts
17-Jan-18 18:11 46.363563 -61.883576 50 39182ft 574kts
17-Jan-18 18:12 46.456827 -61.696081 50 39190ft 574kts
17-Jan-18 18:13 46.549955 -61.507597 50 39195ft 572kts
17-Jan-18 18:14 46.642218 -61.319597 50 39216ft 570kts
17-Jan-18 18:15 46.734299 -61.130698 51 39222ft 570kts
17-Jan-18 18:16 46.825628 -60.942064 51 39225ft 570kts
17-Jan-18 18:17 46.916647 -60.752780 51 39227ft 570kts
17-Jan-18 18:18 47.007533 -60.562489 51 39230ft 569kts
17-Jan-18 18:19 47.097746 -60.372299 52 39232ft 568kts
17-Jan-18 18:20 47.187470 -60.181834 52 39236ft 567kts
17-Jan-18 18:21 47.276841 -59.990796 52 39245ft 566kts
17-Jan-18 18:22 47.365705 -59.799530 52 39262ft 566kts
17-Jan-18 18:23 47.454424 -59.607236 52 39276ft 565kts
17-Jan-18 18:24 47.542540 -59.414907 52 39289ft 566kts
17-Jan-18 18:25 47.630494 -59.221631 52 39295ft 566kts
17-Jan-18 18:26 47.718412 -59.027129 53 39278ft 569kts
17-Jan-18 18:27 47.806646 -58.830195 53 39285ft 575kts
17-Jan-18 18:28 47.894866 -58.632134 53 39280ft 569kts
17-Jan-18 18:29 47.981423 -58.436278 53 39290ft 569kts
17-Jan-18 18:30 48.068289 -58.238432 53 39287ft 569kts
17-Jan-18 18:31 48.155036 -58.039351 53 39291ft 571kts
17-Jan-18 18:32 48.241848 -57.838482 54 39307ft 579kts
17-Jan-18 18:33 48.328423 -57.636699 54 39289ft 565kts
17-Jan-18 18:34 48.413368 -57.437527 54 39294ft 570kts
17-Jan-18 18:35 48.498486 -57.236267 54 39295ft 568kts
17-Jan-18 18:36 48.583219 -57.034407 54 39296ft 567kts
17-Jan-18 18:37 48.667177 -56.832901 54 39296ft 567kts
17-Jan-18 18:38 48.750789 -56.630704 54 39297ft 567kts
17-Jan-18 18:39 48.834437 -56.426861 54 39297ft 568kts
17-Jan-18 18:40 48.917405 -56.223157 54 39299ft 567kts
17-Jan-18 18:41 48.999878 -56.019098 55 39300ft 567kts
17-Jan-18 18:42 49.082352 -55.813458 55 39303ft 567kts
17-Jan-18 18:43 49.164251 -55.607660 55 39306ft 568kts
17-Jan-18 18:44 49.246068 -55.400459 55 39305ft 568kts
17-Jan-18 18:45 49.327249 -55.193249 55 39302ft 568kts
17-Jan-18 18:46 49.394657 -55.019944 55 39303ft 568kts
17-Jan-18 18:47 49.488903 -54.775698 56 39307ft 570kts
17-Jan-18 18:48 49.555586 -54.601501 56 39298ft 569kts
17-Jan-18 18:49 49.649130 -54.355206 56 39316ft 571kts
17-Jan-18 18:50 49.728614 -54.144188 56 39322ft 569kts
17-Jan-18 18:51 49.794728 -53.967113 56 39314ft 571kts
17-Jan-18 18:52 49.887103 -53.717840 57 39314ft 571kts
17-Jan-18 18:53 49.952572 -53.539719 57 39300ft 571kts
17-Jan-18 18:54 50.030857 -53.325104 57 39298ft 571kts
17-Jan-18 18:55 50.121666 -53.073897 57 39297ft 569kts
17-Jan-18 18:56 50.198748 -52.858722 58 39295ft 569kts
17-Jan-18 18:57 50.262808 -52.678515 58 39286ft 571kts
17-Jan-18 18:58 50.339659 -52.460636 58 39274ft 571kts
17-Jan-18 18:59 50.416283 -52.242819 58 39272ft 572kts
17-Jan-18 19:00 50.492225 -52.022617 59 39278ft 572kts
17-Jan-18 19:01 50.552705 -51.790841 69 39279ft 575kts
17-Jan-18 19:02 50.606536 -51.554545 68 39278ft 574kts
17-Jan-18 19:03 50.663060 -51.319100 67 39277ft 573kts
17-Jan-18 19:04 50.718667 -51.084095 68 39264ft 572kts
17-Jan-18 19:05 50.773461 -50.848612 68 39262ft 572kts
17-Jan-18 19:06 50.827985 -50.611548 68 39261ft 572kts
17-Jan-18 19:07 50.881817 -50.374844 68 39259ft 572kts
17-Jan-18 19:08 50.935335 -50.136853 68 39257ft 572kts
17-Jan-18 19:09 50.988202 -49.899072 69 39255ft 572kts
17-Jan-18 19:10 51.040585 -49.660750 69 39253ft 572kts
17-Jan-18 19:11 51.092653 -49.421080 69 39250ft 572kts
17-Jan-18 19:12 51.144078 -49.181623 69 39247ft 572kts
17-Jan-18 19:13 51.195154 -48.940947 69 39245ft 572kts
17-Jan-18 19:14 51.245578 -48.700494 69 39242ft 572kts
17-Jan-18 19:15 51.295519 -48.459465 70 39239ft 573kts
17-Jan-18 19:16 51.345109 -48.217201 70 39236ft 572kts
17-Jan-18 19:17 51.393988 -47.975454 70 39232ft 571kts
17-Jan-18 19:18 51.442353 -47.733281 71 39229ft 572kts
17-Jan-18 19:19 51.490439 -47.489473 71 39226ft 573kts
17-Jan-18 19:20 51.537984 -47.245318 71 39222ft 573kts
17-Jan-18 19:21 51.585221 -46.999613 71 39219ft 574kts
17-Jan-18 19:22 51.631867 -46.753818 72 39215ft 575kts
17-Jan-18 19:23 51.678182 -46.506504 72 39211ft 576kts
17-Jan-18 19:24 51.723838 -46.259477 72 39208ft 575kts
17-Jan-18 19:25 51.768939 -46.012136 72 39204ft 575kts
17-Jan-18 19:26 51.813725 -45.763159 72 39188ft 576kts
17-Jan-18 19:27 51.857848 -45.514471 73 39184ft 577kts
17-Jan-18 19:28 51.901571 -45.264564 73 39089ft 578kts
17-Jan-18 19:29 51.945017 -45.012693 73 39067ft 580kts
17-Jan-18 19:30 51.987908 -44.760437 73 39060ft 582kts
17-Jan-18 19:31 52.030426 -44.506708 74 39052ft 579kts
17-Jan-18 19:32 52.072185 -44.253787 74 39045ft 582kts
17-Jan-18 19:33 52.113528 -43.999608 74 39037ft 583kts
17-Jan-18 19:34 52.154509 -43.743802 74 39030ft 583kts
17-Jan-18 19:35 52.194754 -43.488666 75 39023ft 582kts
17-Jan-18 19:36 52.234441 -43.233159 75 39017ft 582kts
17-Jan-18 19:37 52.273702 -42.976339 75 39010ft 582kts
17-Jan-18 19:38 52.312326 -42.719601 75 39004ft 584kts
17-Jan-18 19:39 52.350658 -42.460604 75 38998ft 586kts
17-Jan-18 19:40 52.388424 -42.201150 76 38992ft 588kts
17-Jan-18 19:41 52.425695 -41.940732 76 38986ft 588kts
17-Jan-18 19:42 52.462577 -41.678551 76 38981ft 589kts
17-Jan-18 19:43 52.498696 -41.417281 76 38975ft 587kts
17-Jan-18 19:44 52.534289 -41.155186 76 38971ft 587kts
17-Jan-18 19:45 52.569198 -40.893499 76 38966ft 587kts
17-Jan-18 19:46 52.603339 -40.632847 76 38961ft 581kts
17-Jan-18 19:47 52.636927 -40.371643 77 38956ft 583kts
17-Jan-18 19:48 52.669914 -40.110223 77 38953ft 584kts
17-Jan-18 19:49 52.702450 -39.847417 77 38949ft 585kts
17-Jan-18 19:50 52.734349 -39.584585 78 38949ft 585kts
17-Jan-18 19:51 52.765741 -39.320900 78 38941ft 584kts
17-Jan-18 19:52 52.796440 -39.057664 78 38938ft 584kts
17-Jan-18 19:53 52.826565 -38.794030 78 38934ft 584kts
17-Jan-18 19:54 52.856213 -38.529028 78 38931ft 585kts
17-Jan-18 19:55 52.885209 -38.264207 79 38929ft 585kts
17-Jan-18 19:56 52.913716 -37.998123 79 38925ft 586kts
17-Jan-18 19:57 52.941592 -37.732029 79 38923ft 587kts
17-Jan-18 19:58 52.968868 -37.465661 79 38921ft 587kts
17-Jan-18 19:59 52.995638 -37.197995 80 38918ft 587kts
17-Jan-18 20:00 53.021726 -36.930908 80 38876ft 586kts
17-Jan-18 20:01 53.047206 -36.663531 80 38871ft 587kts
17-Jan-18 20:02 53.072184 -36.394833 80 38867ft 587kts
17-Jan-18 20:03 53.096448 -36.127001 80 38862ft 586kts
17-Jan-18 20:04 53.120183 -35.858030 81 38858ft 587kts
17-Jan-18 20:05 53.143276 -35.589185 81 38795ft 587kts
17-Jan-18 20:06 53.165757 -35.320137 81 38788ft 587kts
17-Jan-18 20:07 53.187706 -35.049826 81 38782ft 588kts
17-Jan-18 20:08 53.209008 -34.779756 82 38776ft 588kts
17-Jan-18 20:09 53.229683 -34.509613 82 38770ft 587kts
17-Jan-18 20:10 53.249803 -34.238434 82 38764ft 587kts
17-Jan-18 20:11 53.269222 -33.968206 82 38759ft 586kts
17-Jan-18 20:12 53.288081 -33.696979 83 38753ft 587kts
17-Jan-18 20:13 53.306290 -33.426037 83 38748ft 588kts
17-Jan-18 20:14 53.323923 -33.154261 83 38743ft 589kts
17-Jan-18 20:15 53.341015 -32.881017 84 38737ft 589kts
17-Jan-18 20:16 53.357433 -32.608382 84 38732ft 589kts
17-Jan-18 20:17 53.373200 -32.335894 84 38726ft 588kts
17-Jan-18 20:18 53.388391 -32.062740 84 38722ft 587kts
17-Jan-18 20:19 53.402887 -31.790588 84 38718ft 587kts
17-Jan-18 20:20 53.416769 -31.518108 85 38713ft 588kts
17-Jan-18 20:21 53.430102 -31.244020 85 38708ft 589kts
17-Jan-18 20:22 53.442781 -30.970302 85 38704ft 589kts
17-Jan-18 20:23 53.454828 -30.696370 85 38700ft 590kts
17-Jan-18 20:24 53.466297 -30.421456 86 38695ft 589kts
17-Jan-18 20:25 53.477073 -30.147869 86 38689ft 587kts
17-Jan-18 20:26 53.487200 -29.874622 86 38683ft 586kts
17-Jan-18 20:27 53.496747 -29.600265 86 38679ft 587kts
17-Jan-18 20:28 53.505643 -29.326361 86 38676ft 589kts
17-Jan-18 20:29 53.513928 -29.051686 87 38673ft 590kts
17-Jan-18 20:30 53.521608 -28.775844 87 38671ft 590kts
17-Jan-18 20:31 53.528624 -28.501102 87 38735ft 589kts
17-Jan-18 20:32 53.535026 -28.226563 87 38734ft 587kts
17-Jan-18 20:33 53.540786 -27.951877 87 38732ft 587kts
17-Jan-18 20:34 53.545901 -27.678022 88 38731ft 587kts
17-Jan-18 20:35 53.550392 -27.403845 88 38730ft 588kts
17-Jan-18 20:36 53.554277 -27.128117 88 38728ft 589kts
17-Jan-18 20:37 53.557521 -26.852879 89 38707ft 590kts
17-Jan-18 20:38 53.560129 -26.577709 89 38706ft 589kts
17-Jan-18 20:39 53.562112 -26.301918 89 38706ft 587kts
17-Jan-18 20:40 53.563458 -26.027767 90 38705ft 587kts
17-Jan-18 20:41 53.564175 -25.753684 90 38704ft 587kts
17-Jan-18 20:42 53.564263 -25.478440 90 38571ft 588kts
17-Jan-18 20:43 53.563720 -25.203311 90 38525ft 590kts
17-Jan-18 20:44 53.562541 -24.927312 91 38524ft 591kts
17-Jan-18 20:45 53.560716 -24.650218 91 38524ft 591kts
17-Jan-18 20:46 53.558266 -24.374266 91 38523ft 590kts
17-Jan-18 20:47 53.555182 -24.098700 91 38523ft 590kts
17-Jan-18 20:48 53.551462 -23.822812 92 38504ft 589kts
17-Jan-18 20:49 53.547113 -23.547477 92 38503ft 590kts
17-Jan-18 20:50 53.542125 -23.271701 92 38445ft 591kts
17-Jan-18 20:51 53.536471 -22.994596 92 38446ft 593kts
17-Jan-18 20:52 53.530190 -22.718103 93 38446ft 593kts
17-Jan-18 20:53 53.523272 -22.441742 93 38427ft 592kts
17-Jan-18 20:54 53.515703 -22.164973 93 38428ft 591kts
17-Jan-18 20:55 53.507535 -21.889585 93 38429ft 590kts
17-Jan-18 20:56 53.498726 -21.614163 94 38430ft 591kts
17-Jan-18 20:57 53.489243 -21.337597 94 38431ft 593kts
17-Jan-18 20:58 53.479144 -21.061697 94 38433ft 593kts
17-Jan-18 20:59 53.468400 -20.785724 95 38435ft 593kts
17-Jan-18 21:00 53.456977 -20.508878 95 38436ft 593kts
17-Jan-18 21:01 53.444962 -20.233250 95 38439ft 592kts
17-Jan-18 21:02 53.432324 -19.958016 95 38518ft 593kts
17-Jan-18 21:03 53.419006 -19.681981 96 38518ft 592kts
17-Jan-18 21:04 53.405095 -19.406948 96 38518ft 593kts
17-Jan-18 21:05 53.390535 -19.131776 96 38518ft 594kts
17-Jan-18 21:06 53.377855 -18.901489 97 38519ft 595kts
17-Jan-18 21:07 53.362101 -18.626277 97 38521ft 594kts
17-Jan-18 21:08 53.345750 -18.351536 97 38518ft 594kts
17-Jan-18 21:09 53.325810 -18.030400 97 38519ft 594kts
17-Jan-18 21:10 53.311085 -17.801882 98 38519ft 594kts
17-Jan-18 21:11 53.289683 -17.481456 98 38518ft 593kts
17-Jan-18 21:12 53.273900 -17.253206 98 38519ft 594kts
17-Jan-18 21:13 53.254385 -16.979515 98 38519ft 595kts
17-Jan-18 21:14 53.234205 -16.705648 98 38521ft 595kts
17-Jan-18 21:15 53.213356 -16.431321 99 38519ft 594kts
17-Jan-18 21:16 53.191963 -16.158366 99 38519ft 594kts
17-Jan-18 21:17 53.169883 -15.884929 99 38519ft 594kts
17-Jan-18 21:18 53.147224 -15.612353 100 38519ft 595kts
17-Jan-18 21:19 53.123954 -15.340142 100 38519ft 594kts
17-Jan-18 21:20 53.099951 -15.067047 100 38520ft 595kts
17-Jan-18 21:21 53.075440 -14.795327 100 38520ft 595kts
17-Jan-18 21:22 53.050314 -14.523813 100 38520ft 596kts
17-Jan-18 21:23 53.024830 -14.251358 101 38520ft 595kts
17-Jan-18 21:24 52.997801 -13.980674 103 38519ft 594kts
17-Jan-18 21:25 52.955266 -13.716849 110 38520ft 591kts
17-Jan-18 21:26 52.910804 -13.455015 109 38520ft 591kts
17-Jan-18 21:27 52.868678 -13.192112 109 38520ft 591kts
17-Jan-18 21:28 52.824936 -12.929564 109 38520ft 591kts
17-Jan-18 21:29 52.780650 -12.668721 110 38520ft 590kts
17-Jan-18 21:30 52.735655 -12.407700 110 38553ft 590kts
17-Jan-18 21:31 52.690201 -12.147892 111 38556ft 590kts
17-Jan-18 21:32 52.644281 -11.889150 111 38556ft 590kts
17-Jan-18 21:33 52.597618 -11.629957 111 38555ft 589kts
17-Jan-18 21:34 52.550555 -11.372244 111 38554ft 589kts
17-Jan-18 21:35 52.502862 -11.114660 112 38552ft 590kts
17-Jan-18 21:36 52.454388 -10.856481 112 38550ft 591kts
17-Jan-18 21:37 52.405551 -10.599903 112 38548ft 591kts
17-Jan-18 21:38 52.355965 -10.342893 112 38543ft 591kts
17-Jan-18 21:39 52.305954 -10.087134 113 38537ft 591kts
17-Jan-18 21:40 52.255384 -9.831989 113 38529ft 592kts
17-Jan-18 21:41 52.204114 -9.576521 113 38522ft 590kts
17-Jan-18 21:42 52.152524 -9.322844 113 38526ft 591kts
17-Jan-18 21:43 52.100369 -9.069657 113 38556ft 591kts
17-Jan-18 21:44 52.047538 -8.816410 114 38615ft 589kts
17-Jan-18 21:45 51.994503 -8.565351 114 38632ft 587kts
17-Jan-18 21:46 51.941222 -8.316217 114 38664ft 585kts
17-Jan-18 21:47 51.887224 -8.066785 114 38651ft 586kts
17-Jan-18 21:48 51.832857 -7.818667 115 38619ft 586kts
17-Jan-18 21:49 51.777878 -7.570722 115 38578ft 584kts
17-Jan-18 21:50 51.722812 -7.324502 114 38551ft 584kts
17-Jan-18 21:51 51.667399 -7.079658 115 38544ft 581kts
17-Jan-18 21:52 51.612211 -6.834340 111 38518ft 585kts
17-Jan-18 21:53 51.575441 -6.578711 105 38537ft 587kts
17-Jan-18 21:54 51.537590 -6.323485 106 38560ft 588kts
17-Jan-18 21:55 51.500148 -6.067237 107 38636ft 589kts
17-Jan-18 21:56 51.461271 -5.812490 107 38657ft 588kts
17-Jan-18 21:57 51.421726 -5.557791 107 38669ft 587kts
17-Jan-18 21:58 51.382326 -5.304434 107 38672ft 587kts
17-Jan-18 21:59 51.341045 -5.052410 111 38653ft 584kts
17-Jan-18 22:00 51.259964 -4.838551 140 38641ft 556kts
17-Jan-18 22:01 51.161041 -4.646224 136 38644ft 563kts
17-Jan-18 22:02 51.065823 -4.448812 135 38651ft 563kts
17-Jan-18 22:03 50.969726 -4.251744 136 38633ft 562kts
17-Jan-18 22:04 50.873109 -4.057452 135 38621ft 562kts
17-Jan-18 22:05 50.804522 -3.830377 108 38605ft 584kts
17-Jan-18 22:06 50.756410 -3.585985 111 38568ft 581kts
17-Jan-18 22:07 50.706286 -3.345573 110 35815ft 585kts
17-Jan-18 22:08 50.653173 -3.100849 111 32584ft 590kts
17-Jan-18 22:09 50.639816 -2.854745 75 30841ft 561kts
17-Jan-18 22:10 50.671338 -2.617052 76 27966ft 547kts
17-Jan-18 22:11 50.679189 -2.379512 92 26756ft 544kts
17-Jan-18 22:12 50.666141 -2.142805 92 26619ft 542kts
17-Jan-18 22:13 50.661308 -1.910298 84 24514ft 519kts
17-Jan-18 22:14 50.664970 -1.686186 86 22447ft 503kts
17-Jan-18 22:15 50.665670 -1.469001 89 20246ft 487kts
17-Jan-18 22:16 50.682332 -1.262786 67 17833ft 466kts
17-Jan-18 22:17 50.729928 -1.078921 60 15923ft 445kts
17-Jan-18 22:18 50.774547 -0.901086 61 14091ft 420kts
17-Jan-18 22:19 50.812229 -0.740861 69 12659ft 376kts
17-Jan-18 22:20 50.831506 -0.580919 74 11694ft 367kts
17-Jan-18 22:21 50.850094 -0.423403 75 10635ft 361kts
17-Jan-18 22:22 50.867418 -0.268234 75 9635ft 348kts
17-Jan-18 22:23 50.883292 -0.125521 75 8097ft 315kts
17-Jan-18 22:24 50.911991 0.000612 55 6255ft 302kts
17-Jan-18 22:25 50.974727 0.057436 344 5067ft 242kts
17-Jan-18 22:26 51.037001 0.046924 338 4117ft 214kts
17-Jan-18 22:27 51.091568 0.037295 337 3272ft 178kts
17-Jan-18 22:28 51.136796 0.029303 336 2606ft 152kts
17-Jan-18 22:29 51.174871 0.015109 300 1965ft 126kts
17-Jan-18 22:30 51.168611 -0.040887 263 1874ft 131kts
17-Jan-18 22:31 51.161670 -0.089861 261 1202ft 108kts
17-Jan-18 22:32 51.155386 -0.137348 263 648ft 107kts
17-Jan-18 22:33 51.148990 -0.183705 261 210ft 81kts
17-Jan-18 22:34 51.148589 -0.194730 305 209ft 9kts
17-Jan-18 22:35 51.150532 -0.192122 66 209ft 13kts
17-Jan-18 22:36 51.151304 -0.186779 80 209ft 15kts
17-Jan-18 22:37 51.151924 -0.181719 77 209ft 9kts
17-Jan-18 22:38 51.153989 -0.181602 346 209ft 7kts
17-Jan-18 22:39 51.155921 -0.181024 31 209ft 9kts
17-Jan-18 22:40 51.156384 -0.179485 165 209ft 5kts
17-Jan-18 22:41 51.156108 -0.179379 165 209ft 0kts
17-Jan-18 22:42 51.156108 -0.179379 165 209ft 0kts
17-Jan-18 22:43 51.156108 -0.179379 165 209ft 0kts
17-Jan-18 22:44 51.156108 -0.179379 165 209ft 0kts
17-Jan-18 22:45 51.156108 -0.179379 165 209ft 0kts
17-Jan-18 22:46 51.156108 -0.179379 165 209ft 0kts
17-Jan-18 22:47 51.156108 -0.179379 165 209ft 0kts
17-Jan-18 22:48 51.156108 -0.179379 165 209ft 0kts
17-Jan-18 22:49 51.156108 -0.179379 165 209ft 0kts

Navigation Log

Ident Type
Flight plan parsing failed, navigation log unavailable